Terminal Aerodrome Forecast
Issued by NWS Mt. Holly, NJ

Home | Current Version | Previous Version | Text Only | Print | Product List | Glossary On
Versions: 1 2 3 4 5 6 7 8 9 10 11 12 13 14 15 16 17 18 19 20
000
FTUS41 KPHI 040545
TAFILG
TAF
KILG 040545Z 0406/0506 12005KT P6SM SCT050 BKN100
     FM041000 07007KT 6SM -SHRA SCT025 OVC050
      TEMPO 0414/0418 3SM SHRA OVC025
     FM041900 04009KT 5SM BR OVC030
     FM050100 06007KT P6SM BKN040=

USA.gov is the U.S. government's official web portal to all federal, state and local government web resources and services.